Guanghua, China
Current Conditions -  °F | °C
As of 1:00 AM on Sunday 26 Oct 2014 (Local Time) from ZHHH Reporting Station
Haze Haze  
Wind Chill: 66°   Ceiling: Unl
Heat Index: 66°   Visibility: 2.5mi
Dew Point: 61°   Wind: 4mph
Humidity: 83%   Direction: 60°ENE
Pressure: 30"   Gusts: NA
Location:  32.38°N, 111.67°E
Report Text: ZHHH 251700Z 06002MPS 020V110 4000 BR NSC 19/16 Q1016 NOSIG
Loading
Personal Weather Stations






























Interactive Weather Map
Tropical Storm Tracking
New forecast layout! Learn more

10-Day Weather Forecast

Advertisements
Track Severe Weather on mobile